Time;durP1;ratioP1;P1;durP2;ratioP2;P2;SDS_P1;SDS_P2;PMS_P1;PMS_P2;Temp;Humidity;BMP_temperature;BMP_pressure;BME280_temperature;BME280_humidity;BME280_pressure;Samples;Min_cycle;Max_cycle;Signal;HPM_P1;HPM_P2
2023/07/24 00:00:45;;;;;;;8.43;4.22;;;12.40;99.90;;;;;;5055304;28;20212;-77
2023/07/24 00:03:15;;;;;;;10.13;5.03;;;12.50;99.90;;;;;;5055959;28;20197;-76
2023/07/24 00:05:46;;;;;;;10.35;4.78;;;12.70;99.90;;;;;;5067130;28;20197;-77
2023/07/24 00:08:17;;;;;;;12.02;5.30;;;12.80;99.90;;;;;;5055406;28;20208;-77
2023/07/24 00:10:48;;;;;;;10.05;5.43;;;12.90;99.90;;;;;;5056566;28;20221;-76
2023/07/24 00:13:19;;;;;;;11.48;5.53;;;13.00;99.90;;;;;;5061778;28;20247;-77
2023/07/24 00:15:51;;;;;;;11.60;5.18;;;13.10;99.90;;;;;;5065417;28;20228;-78
2023/07/24 00:18:22;;;;;;;10.57;5.65;;;13.10;99.90;;;;;;5056654;28;20216;-78
2023/07/24 00:20:53;;;;;;;10.35;5.05;;;13.20;99.90;;;;;;5055093;28;20284;-78
2023/07/24 00:23:23;;;;;;;10.48;4.43;;;13.30;99.90;;;;;;5054806;28;20198;-78
2023/07/24 00:25:55;;;;;;;6.40;3.80;;;13.40;99.90;;;;;;5055176;28;20201;-78
2023/07/24 00:28:25;;;;;;;7.72;4.38;;;13.50;99.90;;;;;;5055170;28;20201;-78
2023/07/24 00:30:58;;;;;;;8.85;4.25;;;13.70;99.90;;;;;;5061351;28;20217;-78
2023/07/24 00:33:29;;;;;;;10.20;3.72;;;13.80;99.90;;;;;;5062602;28;20555;-79
2023/07/24 00:36:00;;;;;;;8.70;4.15;;;14.10;99.90;;;;;;5074894;28;20549;-79
2023/07/24 00:38:31;;;;;;;8.68;4.00;;;14.30;99.90;;;;;;5058961;28;20201;-80
2023/07/24 00:41:01;;;;;;;9.40;4.03;;;14.40;99.90;;;;;;5074605;28;20235;-80
2023/07/24 00:43:32;;;;;;;14.75;3.30;;;14.50;99.90;;;;;;5060699;28;20197;-80
2023/07/24 00:46:05;;;;;;;5.72;2.40;;;14.60;99.90;;;;;;5054999;28;20193;-80
2023/07/24 00:48:36;;;;;;;9.70;2.97;;;14.60;99.90;;;;;;5066245;28;20209;-78
2023/07/24 00:51:07;;;;;;;6.40;2.00;;;14.60;99.90;;;;;;5058417;28;20224;-78
2023/07/24 00:53:38;;;;;;;6.90;2.38;;;14.70;99.90;;;;;;5062316;28;20189;-78
2023/07/24 00:56:09;;;;;;;7.57;2.38;;;14.60;99.90;;;;;;5056314;28;20592;-78
2023/07/24 00:58:41;;;;;;;6.70;2.38;;;14.60;99.90;;;;;;5054057;28;20194;-78
2023/07/24 01:01:14;;;;;;;4.78;1.95;;;14.60;99.90;;;;;;5054523;28;20200;-78
2023/07/24 01:03:45;;;;;;;7.28;2.10;;;14.60;99.90;;;;;;5067883;28;20197;-78
2023/07/24 01:06:16;;;;;;;8.35;2.33;;;14.50;99.90;;;;;;5067742;28;20567;-78
2023/07/24 01:08:47;;;;;;;5.57;1.90;;;14.40;99.90;;;;;;5054587;28;20255;-78
2023/07/24 01:11:23;;;;;;;8.98;2.20;;;14.30;99.90;;;;;;5063421;28;20251;-79
2023/07/24 01:13:59;;;;;;;6.95;2.28;;;14.30;99.90;;;;;;5058985;28;20197;-80
2023/07/24 01:16:39;;;;;;;5.18;2.03;;;14.30;99.90;;;;;;5067663;28;20582;-80
2023/07/24 01:19:19;;;;;;;8.00;2.80;;;14.30;99.90;;;;;;5057374;28;20207;-80
2023/07/24 01:22:02;;;;;;;6.43;1.98;;;14.30;99.90;;;;;;5053559;28;20185;-79
2023/07/24 01:24:48;;;;;;;6.97;2.05;;;14.40;99.90;;;;;;5062306;28;20380;-79
2023/07/24 01:27:27;;;;;;;5.25;1.90;;;14.40;99.90;;;;;;5059909;28;20232;-79
2023/07/24 01:29:58;;;;;;;5.25;1.83;;;14.40;99.90;;;;;;5054728;28;20313;-80
2023/07/24 01:32:29;;;;;;;4.55;1.77;;;14.40;99.90;;;;;;5054109;28;20200;-79
2023/07/24 01:35:00;;;;;;;7.10;2.08;;;14.40;99.90;;;;;;5061044;28;20189;-79
2023/07/24 01:37:31;;;;;;;5.68;1.75;;;14.30;99.90;;;;;;5066714;28;20188;-80
2023/07/24 01:40:03;;;;;;;8.10;2.35;;;14.40;99.90;;;;;;5059841;28;20239;-76
2023/07/24 01:42:36;;;;;;;8.60;2.38;;;14.40;99.90;;;;;;5066980;28;20279;-79
2023/07/24 01:45:08;;;;;;;8.07;2.50;;;14.40;99.90;;;;;;5073725;28;20185;-80
2023/07/24 01:47:39;;;;;;;7.05;2.17;;;14.50;99.90;;;;;;5073802;28;20201;-78
2023/07/24 01:50:10;;;;;;;5.72;2.25;;;14.50;99.90;;;;;;5060456;28;20225;-76
2023/07/24 01:52:41;;;;;;;4.55;2.08;;;14.60;99.90;;;;;;5067781;28;20196;-80
2023/07/24 01:55:12;;;;;;;5.47;1.95;;;14.70;99.90;;;;;;5053366;28;20201;-81
2023/07/24 01:57:45;;;;;;;5.68;1.90;;;14.80;99.90;;;;;;5057204;28;20722;-80
2023/07/24 02:00:16;;;;;;;6.90;1.70;;;14.90;99.90;;;;;;5057951;28;20208;-80
2023/07/24 02:02:47;;;;;;;7.20;2.00;;;15.10;99.90;;;;;;5071735;28;20243;-81
2023/07/24 02:05:18;;;;;;;5.63;1.50;;;15.20;99.90;;;;;;5066579;28;20200;-81
2023/07/24 02:07:48;;;;;;;4.85;1.88;;;15.30;99.90;;;;;;5070951;28;20558;-83
2023/07/24 02:10:19;;;;;;;5.40;1.88;;;15.50;99.90;;;;;;5060658;28;20241;-79
2023/07/24 02:12:52;;;;;;;4.95;1.52;;;15.70;99.90;;;;;;5060646;28;20200;-80
2023/07/24 02:15:23;;;;;;;6.20;1.50;;;16.00;99.90;;;;;;5067080;28;20189;-81
2023/07/24 02:17:53;;;;;;;6.90;1.50;;;16.20;99.90;;;;;;5063207;28;20195;-81
2023/07/24 02:20:24;;;;;;;6.20;1.77;;;16.40;99.90;;;;;;5072393;28;20561;-81
2023/07/24 02:22:55;;;;;;;8.82;2.17;;;16.60;99.90;;;;;;5072003;28;20303;-81
2023/07/24 02:25:26;;;;;;;6.15;1.55;;;16.70;99.90;;;;;;5062576;28;20193;-81
2023/07/24 02:27:58;;;;;;;4.72;1.50;;;16.80;99.90;;;;;;5068342;28;20189;-78
2023/07/24 02:30:29;;;;;;;5.18;1.45;;;16.80;99.90;;;;;;5064259;28;20714;-82
2023/07/24 02:33:00;;;;;;;9.23;1.58;;;16.80;99.90;;;;;;5063336;28;20193;-84
2023/07/24 02:35:31;;;;;;;6.43;1.48;;;16.70;99.90;;;;;;5065824;28;20278;-81
2023/07/24 02:38:02;;;;;;;4.50;1.30;;;16.80;99.90;;;;;;5057638;28;20738;-84
2023/07/24 02:40:32;;;;;;;8.00;1.40;;;16.80;99.90;;;;;;5068276;28;20228;-82
2023/07/24 02:43:05;;;;;;;4.82;1.33;;;16.80;99.90;;;;;;5065880;28;20189;-82
2023/07/24 02:45:38;;;;;;;5.75;1.55;;;16.60;99.90;;;;;;5068963;28;20566;-81
2023/07/24 02:48:09;;;;;;;5.07;1.38;;;16.50;99.90;;;;;;5059998;28;20204;-82
2023/07/24 02:50:40;;;;;;;4.38;1.30;;;16.60;99.90;;;;;;5065512;28;20220;-82
2023/07/24 02:53:11;;;;;;;9.98;1.63;;;16.70;99.90;;;;;;5067286;28;20282;-82
2023/07/24 02:55:45;;;;;;;4.97;1.40;;;16.80;99.90;;;;;;5064357;28;20679;-79
2023/07/24 02:58:18;;;;;;;5.22;1.38;;;17.00;99.90;;;;;;5065564;28;20555;-81
2023/07/24 03:00:50;;;;;;;7.88;1.85;;;17.10;99.90;;;;;;5071097;28;20197;-80
2023/07/24 03:03:21;;;;;;;8.13;1.60;;;17.30;99.90;;;;;;5056038;28;20208;-83
2023/07/24 03:05:52;;;;;;;4.55;1.40;;;17.50;99.90;;;;;;5068679;28;20193;-83
2023/07/24 03:08:22;;;;;;;4.78;1.27;;;17.60;99.90;;;;;;5063013;28;20205;-81
2023/07/24 03:10:53;;;;;;;8.05;1.42;;;17.80;99.90;;;;;;5056942;28;20233;-82
2023/07/24 03:13:26;;;;;;;3.80;1.20;;;17.90;99.90;;;;;;5058021;28;20719;-86
2023/07/24 03:15:58;;;;;;;4.13;1.20;;;17.90;99.90;;;;;;5065802;28;20237;-84
2023/07/24 03:18:29;;;;;;;7.90;1.73;;;17.80;99.90;;;;;;5053957;28;20659;-82
2023/07/24 03:21:02;;;;;;;9.15;1.60;;;17.70;99.90;;;;;;5060114;28;20300;-83
2023/07/24 03:23:34;;;;;;;6.90;1.50;;;17.70;99.90;;;;;;5063697;28;20193;-83
2023/07/24 03:26:04;;;;;;;9.10;1.52;;;17.70;99.90;;;;;;5067425;28;20223;-81
2023/07/24 03:28:37;;;;;;;4.18;1.30;;;17.70;99.90;;;;;;5055799;28;20208;-82
2023/07/24 03:31:08;;;;;;;7.90;1.50;;;17.60;99.90;;;;;;5070981;28;20221;-80
2023/07/24 03:33:39;;;;;;;6.70;1.35;;;17.50;99.90;;;;;;5063333;28;20196;-81
2023/07/24 03:36:10;;;;;;;5.57;1.30;;;17.40;99.90;;;;;;5056520;28;20661;-81
2023/07/24 03:38:40;;;;;;;6.20;1.60;;;17.20;99.90;;;;;;5055671;28;20664;-83
2023/07/24 03:41:11;;;;;;;4.55;1.25;;;17.10;99.90;;;;;;5062044;28;20702;-83
2023/07/24 03:43:44;;;;;;;5.68;1.50;;;17.00;99.90;;;;;;5075810;28;20633;-82
2023/07/24 03:46:15;;;;;;;4.53;1.60;;;16.90;99.90;;;;;;5061874;28;20194;-85
2023/07/24 03:48:45;;;;;;;7.60;1.70;;;16.90;99.90;;;;;;5061146;28;20199;-85
2023/07/24 03:51:16;;;;;;;7.60;1.40;;;16.90;99.90;;;;;;5075789;28;20227;-84
2023/07/24 03:53:47;;;;;;;4.95;1.45;;;16.80;99.90;;;;;;5069743;28;20196;-82
2023/07/24 03:56:18;;;;;;;8.50;1.65;;;16.80;99.90;;;;;;5072792;28;20197;-79
2023/07/24 03:58:51;;;;;;;4.85;1.40;;;16.70;99.90;;;;;;5066932;28;20200;-83
2023/07/24 04:01:22;;;;;;;3.88;1.55;;;16.70;99.90;;;;;;5071416;28;20220;-83
2023/07/24 04:03:52;;;;;;;6.63;1.60;;;16.70;99.90;;;;;;5053273;28;20197;-83
2023/07/24 04:06:23;;;;;;;5.60;1.60;;;16.70;99.90;;;;;;5064684;28;20201;-83
2023/07/24 04:08:54;;;;;;;9.65;1.80;;;16.80;99.90;;;;;;5054245;28;20233;-84
2023/07/24 04:11:25;;;;;;;8.50;2.22;;;16.80;99.90;;;;;;5065962;28;20218;-81
2023/07/24 04:13:57;;;;;;;3.92;1.60;;;16.80;99.90;;;;;;5056956;28;20295;-76
2023/07/24 04:16:28;;;;;;;6.25;1.77;;;16.80;99.90;;;;;;5080278;28;20298;-82
2023/07/24 04:18:59;;;;;;;4.35;1.25;;;16.80;99.90;;;;;;5056326;28;20216;-82
2023/07/24 04:21:30;;;;;;;5.43;1.70;;;16.80;99.90;;;;;;5054705;28;20205;-84
2023/07/24 04:24:01;;;;;;;9.38;1.98;;;16.90;99.90;;;;;;5054399;28;20657;-82
2023/07/24 04:26:31;;;;;;;4.15;1.30;;;16.90;99.90;;;;;;5070277;28;20279;-82
2023/07/24 04:29:04;;;;;;;5.28;1.48;;;17.00;99.90;;;;;;5057653;28;20199;-83
2023/07/24 04:31:35;;;;;;;8.02;1.40;;;16.90;99.90;;;;;;5073856;28;20223;-84
2023/07/24 04:34:06;;;;;;;5.97;1.60;;;16.90;99.90;;;;;;5062230;28;20198;-83
2023/07/24 04:36:36;;;;;;;5.63;1.73;;;16.90;99.90;;;;;;5059910;28;20562;-83
2023/07/24 04:39:07;;;;;;;6.40;1.63;;;16.90;99.90;;;;;;5058359;28;20667;-84
2023/07/24 04:41:38;;;;;;;4.95;1.45;;;16.90;99.90;;;;;;5071772;28;20224;-83
2023/07/24 04:44:11;;;;;;;5.97;1.20;;;17.00;99.90;;;;;;5052282;28;20673;-83
2023/07/24 04:46:41;;;;;;;5.68;1.40;;;17.10;99.90;;;;;;5054890;28;20553;-83
2023/07/24 04:49:12;;;;;;;6.32;1.45;;;17.10;99.90;;;;;;5054736;28;20674;-82
2023/07/24 04:51:43;;;;;;;4.38;1.27;;;17.10;99.90;;;;;;5064970;28;20208;-79
2023/07/24 04:54:14;;;;;;;4.78;1.40;;;17.00;99.90;;;;;;5064591;28;20232;-82
2023/07/24 04:56:44;;;;;;;4.68;1.40;;;17.00;99.90;;;;;;5069989;28;20204;-83
2023/07/24 04:59:17;;;;;;;5.88;1.55;;;17.00;99.90;;;;;;5064100;28;20197;-83
2023/07/24 05:01:48;;;;;;;4.65;1.40;;;17.00;99.90;;;;;;5073416;28;20280;-83
2023/07/24 05:04:19;;;;;;;6.68;1.50;;;16.90;99.90;;;;;;5074163;28;20185;-83
2023/07/24 05:06:50;;;;;;;4.18;1.67;;;16.90;99.90;;;;;;5074306;28;20282;-83
2023/07/24 05:09:20;;;;;;;4.70;1.38;;;16.80;99.90;;;;;;5073033;28;20302;-83
2023/07/24 05:11:51;;;;;;;6.50;1.50;;;16.80;99.90;;;;;;5072475;28;20224;-81
2023/07/24 05:14:24;;;;;;;2.78;1.20;;;16.80;99.90;;;;;;5072277;28;20197;-80
2023/07/24 05:16:55;;;;;;;9.23;1.70;;;16.70;99.90;;;;;;5067638;28;20193;-83
2023/07/24 05:19:25;;;;;;;8.05;1.70;;;16.70;99.90;;;;;;5061313;28;20201;-81
2023/07/24 05:21:56;;;;;;;5.68;1.70;;;16.70;99.90;;;;;;5070341;28;20193;-83
2023/07/24 05:24:27;;;;;;;6.95;1.58;;;16.70;99.90;;;;;;5065594;28;20216;-84
2023/07/24 05:26:58;;;;;;;7.47;1.70;;;16.70;99.90;;;;;;5065400;28;20212;-82
2023/07/24 05:29:30;;;;;;;4.97;1.63;;;16.70;99.90;;;;;;5072521;28;20199;-82
2023/07/24 05:32:01;;;;;;;4.93;1.40;;;16.70;99.90;;;;;;5061237;28;20692;-83
2023/07/24 05:34:32;;;;;;;6.95;1.80;;;16.60;99.90;;;;;;5069551;28;20207;-83
2023/07/24 05:37:03;;;;;;;4.72;1.77;;;16.60;99.90;;;;;;5060950;28;20212;-82
2023/07/24 05:39:34;;;;;;;8.20;1.80;;;16.50;99.90;;;;;;5072973;28;20196;-82
2023/07/24 05:42:05;;;;;;;7.47;1.90;;;16.50;99.90;;;;;;5060034;28;20648;-79
2023/07/24 05:44:37;;;;;;;5.68;1.77;;;16.40;99.90;;;;;;5064127;28;20195;-82
2023/07/24 05:47:08;;;;;;;3.88;1.60;;;16.40;99.90;;;;;;5071864;28;20286;-83
2023/07/24 05:49:39;;;;;;;8.18;1.77;;;16.40;99.90;;;;;;5070019;28;20288;-82
2023/07/24 05:52:10;;;;;;;4.47;1.48;;;16.30;99.90;;;;;;5068284;28;20232;-82
2023/07/24 05:54:41;;;;;;;6.80;1.70;;;16.30;99.90;;;;;;5066237;28;20193;-81
2023/07/24 05:57:12;;;;;;;6.75;1.83;;;16.30;99.90;;;;;;5073352;28;20287;-81
2023/07/24 05:59:44;;;;;;;4.13;1.83;;;16.20;99.90;;;;;;5070239;28;20190;-83
2023/07/24 06:02:15;;;;;;;9.15;1.80;;;16.20;99.90;;;;;;5064600;28;20198;-82
2023/07/24 06:04:46;;;;;;;7.88;1.70;;;16.20;99.90;;;;;;5068375;28;20622;-82
2023/07/24 06:07:17;;;;;;;5.28;1.63;;;16.20;99.90;;;;;;5064058;28;20201;-82
2023/07/24 06:09:48;;;;;;;5.45;1.90;;;16.10;99.90;;;;;;5068422;28;20231;-81
2023/07/24 06:12:19;;;;;;;4.30;1.70;;;16.10;99.90;;;;;;5061740;28;20222;-82
2023/07/24 06:14:52;;;;;;;3.83;1.77;;;16.10;99.90;;;;;;5060934;28;21015;-81
2023/07/24 06:17:22;;;;;;;5.63;1.67;;;16.10;99.90;;;;;;5071478;28;20280;-81
2023/07/24 06:19:53;;;;;;;5.80;1.80;;;16.00;99.90;;;;;;5060483;28;20204;-82
2023/07/24 06:22:24;;;;;;;6.82;1.77;;;16.00;99.90;;;;;;5071528;28;20200;-81
2023/07/24 06:24:55;;;;;;;7.43;2.10;;;16.00;99.90;;;;;;5061186;28;20193;-82
2023/07/24 06:27:25;;;;;;;6.13;1.70;;;16.00;99.90;;;;;;5070305;28;20192;-81
2023/07/24 06:29:58;;;;;;;5.95;1.77;;;15.90;99.90;;;;;;5061531;28;20193;-81
2023/07/24 06:32:29;;;;;;;4.32;1.65;;;15.90;99.90;;;;;;5072898;28;20234;-78
2023/07/24 06:35:00;;;;;;;5.75;1.80;;;15.80;99.90;;;;;;5068173;28;20198;-79
2023/07/24 06:37:30;;;;;;;9.15;2.67;;;15.80;99.90;;;;;;5059660;28;20196;-80
2023/07/24 06:40:01;;;;;;;5.55;1.80;;;15.70;99.90;;;;;;5068092;28;20228;-80
2023/07/24 06:42:32;;;;;;;8.02;1.92;;;15.70;99.90;;;;;;5063572;28;20193;-80
2023/07/24 06:45:05;;;;;;;7.97;1.77;;;15.60;99.90;;;;;;5056873;28;20197;-80
2023/07/24 06:47:36;;;;;;;5.70;1.77;;;15.60;99.90;;;;;;5064925;28;20204;-79
2023/07/24 06:50:07;;;;;;;7.10;2.30;;;15.50;99.90;;;;;;5064301;28;20207;-80
2023/07/24 06:52:37;;;;;;;7.35;2.17;;;15.50;99.90;;;;;;5071190;28;20217;-79
2023/07/24 06:55:09;;;;;;;8.63;2.10;;;15.40;99.90;;;;;;5071717;28;20189;-80
2023/07/24 06:57:40;;;;;;;6.63;2.22;;;15.40;99.90;;;;;;5072485;28;20192;-80
2023/07/24 07:00:14;;;;;;;9.43;2.45;;;15.30;99.90;;;;;;5070726;28;20218;-79
2023/07/24 07:02:44;;;;;;;6.45;2.10;;;15.20;99.90;;;;;;5072743;28;20188;-80
2023/07/24 07:05:15;;;;;;;6.15;2.08;;;15.20;99.90;;;;;;5072657;28;20193;-80
2023/07/24 07:07:46;;;;;;;6.78;2.33;;;15.10;99.90;;;;;;5072582;28;20269;-79
2023/07/24 07:10:17;;;;;;;8.38;2.22;;;15.10;99.90;;;;;;5072347;28;20229;-79
2023/07/24 07:12:47;;;;;;;5.78;2.10;;;15.00;99.90;;;;;;5075107;28;20223;-81
2023/07/24 07:15:20;;;;;;;7.43;2.55;;;15.00;99.90;;;;;;5076509;28;20193;-81
2023/07/24 07:17:51;;;;;;;7.07;2.30;;;14.90;99.90;;;;;;5076609;28;20311;-83
2023/07/24 07:20:22;;;;;;;9.05;2.53;;;14.90;99.90;;;;;;5076875;28;20203;-81
2023/07/24 07:22:52;;;;;;;5.82;2.20;;;14.80;99.90;;;;;;5076630;28;20192;-81
2023/07/24 07:25:23;;;;;;;7.38;2.53;;;14.80;99.90;;;;;;5076237;28;20200;-81
2023/07/24 07:27:54;;;;;;;6.30;2.33;;;14.70;99.90;;;;;;5076560;28;20560;-81
2023/07/24 07:30:26;;;;;;;6.65;2.65;;;14.70;99.90;;;;;;5076348;28;20213;-77
2023/07/24 07:32:57;;;;;;;6.63;2.38;;;14.70;99.90;;;;;;5076163;28;20221;-77
2023/07/24 07:35:28;;;;;;;6.57;2.67;;;14.60;99.90;;;;;;5075933;28;20185;-76
2023/07/24 07:37:59;;;;;;;6.85;2.83;;;14.50;99.90;;;;;;5076179;28;20196;-75
2023/07/24 07:40:29;;;;;;;7.18;2.67;;;14.50;99.90;;;;;;5076066;28;20221;-77
2023/07/24 07:43:00;;;;;;;7.03;2.85;;;14.40;99.90;;;;;;5076039;28;20189;-77
2023/07/24 07:45:33;;;;;;;7.00;2.90;;;14.40;99.90;;;;;;5075920;28;20199;-80
2023/07/24 07:48:04;;;;;;;5.72;2.85;;;14.30;99.90;;;;;;5075792;28;20267;-80
2023/07/24 07:50:35;;;;;;;7.38;3.30;;;14.20;99.90;;;;;;5075851;28;20193;-80
2023/07/24 07:53:05;;;;;;;8.30;3.80;;;14.20;99.90;;;;;;5076318;28;20217;-79
2023/07/24 07:55:36;;;;;;;8.10;3.08;;;14.10;99.90;;;;;;5075779;28;20529;-81
2023/07/24 07:58:07;;;;;;;10.80;3.10;;;14.00;99.90;;;;;;5076114;28;20284;-80
2023/07/24 08:00:40;;;;;;;8.38;3.45;;;14.00;99.90;;;;;;5075891;28;20285;-81
2023/07/24 08:03:11;;;;;;;8.23;3.53;;;13.90;99.90;;;;;;5076018;28;20200;-80
2023/07/24 08:05:42;;;;;;;11.10;3.63;;;13.90;99.90;;;;;;5075349;28;20199;-80
2023/07/24 08:08:13;;;;;;;7.65;3.40;;;13.80;99.90;;;;;;5075639;28;20553;-80
2023/07/24 08:10:44;;;;;;;10.02;4.30;;;13.80;99.90;;;;;;5075873;28;20189;-81
2023/07/24 08:13:14;;;;;;;11.13;3.92;;;13.80;99.90;;;;;;5075429;28;20216;-80
2023/07/24 08:15:47;;;;;;;7.00;3.50;;;13.70;99.90;;;;;;5075562;28;20207;-80
2023/07/24 08:18:18;;;;;;;8.23;3.50;;;13.60;99.90;;;;;;5075531;28;20195;-80
2023/07/24 08:20:49;;;;;;;6.88;3.22;;;13.50;99.90;;;;;;5075124;28;20188;-81
2023/07/24 08:23:19;;;;;;;7.50;3.70;;;13.50;99.90;;;;;;5074373;28;20197;-81
2023/07/24 08:25:55;;;;;;;11.35;4.50;;;13.50;99.90;;;;;;5075257;28;20199;-81
2023/07/24 08:28:26;;;;;;;10.15;4.30;;;13.40;99.90;;;;;;5075303;28;20191;-78
2023/07/24 08:31:05;;;;;;;8.90;4.03;;;13.40;99.90;;;;;;5075062;28;20567;-80
2023/07/24 08:33:36;;;;;;;10.55;4.38;;;13.40;99.90;;;;;;5074906;28;20238;-80
2023/07/24 08:36:08;;;;;;;10.35;4.70;;;13.40;99.90;;;;;;5075120;28;20193;-79
2023/07/24 08:38:40;;;;;;;13.05;4.65;;;13.30;99.90;;;;;;5075115;28;20579;-78
2023/07/24 08:41:12;;;;;;;9.50;4.70;;;13.30;99.90;;;;;;5074953;28;20294;-75
2023/07/24 08:43:44;;;;;;;9.95;4.55;;;13.30;99.90;;;;;;5074788;28;20193;-79
2023/07/24 08:46:17;;;;;;;10.98;3.90;;;13.20;99.90;;;;;;5075167;28;20640;-79
2023/07/24 08:48:48;;;;;;;8.90;3.90;;;13.30;99.90;;;;;;5074617;28;20185;-80
2023/07/24 08:51:21;;;;;;;9.70;3.83;;;13.20;99.90;;;;;;5075005;28;20192;-80
2023/07/24 08:53:53;;;;;;;10.40;4.00;;;13.20;99.90;;;;;;5074545;28;20205;-78
2023/07/24 08:56:23;;;;;;;13.77;4.18;;;13.10;99.90;;;;;;5074675;28;20214;-78
2023/07/24 08:58:54;;;;;;;9.88;4.10;;;13.10;99.90;;;;;;5074696;28;20280;-79
2023/07/24 09:01:27;;;;;;;10.00;4.22;;;13.10;99.90;;;;;;5074615;28;20189;-79
2023/07/24 09:03:59;;;;;;;12.43;4.50;;;13.00;99.90;;;;;;5074568;28;20193;-80
2023/07/24 09:06:30;;;;;;;13.18;4.70;;;12.90;99.90;;;;;;5074688;28;20193;-80
2023/07/24 09:09:01;;;;;;;14.07;5.95;;;12.90;99.90;;;;;;5074218;28;20237;-79
2023/07/24 09:11:32;;;;;;;9.38;5.50;;;12.90;99.90;;;;;;5074357;28;20192;-81
2023/07/24 09:14:02;;;;;;;9.85;4.50;;;12.80;99.90;;;;;;5074206;28;20732;-80
2023/07/24 09:16:35;;;;;;;8.20;4.72;;;12.90;99.90;;;;;;5074287;28;20196;-80
2023/07/24 09:19:06;;;;;;;8.85;4.93;;;12.80;99.90;;;;;;5074372;28;20190;-80
2023/07/24 09:21:37;;;;;;;9.80;5.07;;;12.80;99.90;;;;;;5074281;28;20192;-79
2023/07/24 09:24:15;;;;;;;9.15;5.10;;;12.80;99.90;;;;;;5074016;28;20193;-80
2023/07/24 09:26:53;;;;;;;13.45;5.45;;;12.80;99.90;;;;;;5074274;28;20232;-79
2023/07/24 09:29:24;;;;;;;11.55;4.38;;;12.80;99.90;;;;;;5074173;28;20200;-76
2023/07/24 09:31:56;;;;;;;11.73;4.82;;;12.80;99.90;;;;;;5073661;28;20197;-80
2023/07/24 09:34:27;;;;;;;10.65;4.35;;;12.70;99.90;;;;;;5073774;28;20195;-80
2023/07/24 09:36:58;;;;;;;9.75;4.60;;;12.70;99.90;;;;;;5073847;28;20584;-81
2023/07/24 09:39:29;;;;;;;8.48;4.50;;;12.70;99.90;;;;;;5073912;28;20284;-80
2023/07/24 09:42:07;;;;;;;10.23;4.72;;;12.70;99.90;;;;;;5074177;28;20188;-81
2023/07/24 09:44:38;;;;;;;12.02;5.22;;;12.60;99.90;;;;;;5073663;28;20185;-76
2023/07/24 09:47:11;;;;;;;9.27;4.90;;;12.50;99.90;;;;;;5073586;28;20224;-76
2023/07/24 09:49:42;;;;;;;11.77;5.22;;;12.50;99.90;;;;;;5073667;28;20189;-76
2023/07/24 09:52:13;;;;;;;8.52;4.82;;;12.40;99.90;;;;;;5073396;28;20216;-76
2023/07/24 09:54:55;;;;;;;10.35;4.82;;;12.40;99.90;;;;;;5073502;28;20185;-77
2023/07/24 09:57:28;;;;;;;8.65;4.68;;;12.40;99.90;;;;;;5073593;28;20559;-78
2023/07/24 10:00:00;;;;;;;8.32;4.30;;;12.40;99.90;;;;;;5073749;28;20192;-75
2023/07/24 10:02:34;;;;;;;10.25;4.88;;;12.40;99.90;;;;;;5073461;28;20199;-76
2023/07/24 10:05:05;;;;;;;10.77;5.00;;;12.40;99.90;;;;;;5073695;28;20219;-76
2023/07/24 10:07:36;;;;;;;9.48;4.65;;;12.40;99.90;;;;;;5073730;28;20193;-75
2023/07/24 10:10:08;;;;;;;10.77;4.75;;;12.40;99.90;;;;;;5073209;28;20233;-75
2023/07/24 10:12:39;;;;;;;10.52;4.70;;;12.40;99.90;;;;;;5073260;28;20217;-80
2023/07/24 10:15:11;;;;;;;11.48;5.10;;;12.30;99.90;;;;;;5072966;28;20193;-79
2023/07/24 10:17:45;;;;;;;10.65;4.90;;;12.40;99.90;;;;;;5073441;28;20189;-75
2023/07/24 10:20:18;;;;;;;11.30;5.07;;;12.30;99.90;;;;;;5073161;28;20272;-79
2023/07/24 10:22:49;;;;;;;12.18;4.63;;;12.30;99.90;;;;;;5073301;28;20191;-80
2023/07/24 10:25:20;;;;;;;11.07;5.38;;;12.30;99.90;;;;;;5073189;28;20296;-81
2023/07/24 10:27:52;;;;;;;8.35;4.70;;;12.30;99.90;;;;;;5073065;28;20646;-81
2023/07/24 10:30:32;;;;;;;10.52;5.55;;;12.30;99.90;;;;;;5073201;28;20199;-80
2023/07/24 10:33:10;;;;;;;11.68;5.60;;;12.30;99.90;;;;;;5072923;28;20220;-80
2023/07/24 10:35:45;;;;;;;8.75;5.00;;;12.30;99.90;;;;;;5073184;28;20191;-81
2023/07/24 10:38:18;;;;;;;9.20;4.80;;;12.20;99.90;;;;;;5073193;28;20272;-80
2023/07/24 10:40:50;;;;;;;9.60;4.90;;;12.20;99.90;;;;;;5072980;28;20311;-81
2023/07/24 10:43:22;;;;;;;8.77;5.00;;;12.20;99.90;;;;;;5072966;28;20644;-81
2023/07/24 10:45:54;;;;;;;12.15;5.43;;;12.20;99.90;;;;;;5072953;28;20193;-81
2023/07/24 10:48:29;;;;;;;11.20;5.80;;;12.20;99.90;;;;;;5077220;28;20287;-80
2023/07/24 10:50:59;;;;;;;12.07;5.57;;;12.10;99.90;;;;;;5077242;28;20628;-79
2023/07/24 10:53:30;;;;;;;10.48;5.40;;;12.10;99.90;;;;;;5076968;28;20551;-78
2023/07/24 10:56:02;;;;;;;10.65;5.70;;;12.10;99.90;;;;;;5077067;28;20193;-76
2023/07/24 10:58:35;;;;;;;11.48;6.15;;;12.00;99.90;;;;;;5076724;28;20279;-76
2023/07/24 11:01:08;;;;;;;11.75;6.00;;;12.00;99.90;;;;;;5077625;28;20192;-78
2023/07/24 11:03:44;;;;;;;12.27;6.65;;;12.00;99.90;;;;;;5076790;28;20196;-76
2023/07/24 11:06:19;;;;;;;9.68;6.07;;;12.00;99.90;;;;;;5076735;28;20191;-76
2023/07/24 11:08:56;;;;;;;11.48;6.75;;;12.00;99.90;;;;;;5076688;28;20323;-80
2023/07/24 11:11:31;;;;;;;11.73;6.45;;;12.00;99.90;;;;;;5076465;28;20188;-76
2023/07/24 11:14:03;;;;;;;12.90;6.43;;;12.00;99.90;;;;;;5076559;28;20707;-75
2023/07/24 11:16:34;;;;;;;14.32;6.30;;;12.00;99.90;;;;;;5076434;28;20199;-76
2023/07/24 11:19:07;;;;;;;13.52;7.20;;;11.90;99.90;;;;;;5076713;28;20185;-77
2023/07/24 11:21:40;;;;;;;18.40;7.00;;;11.90;99.90;;;;;;5076146;28;20232;-79
2023/07/24 11:24:11;;;;;;;12.00;7.20;;;11.90;99.90;;;;;;5076443;28;20196;-76
2023/07/24 11:26:43;;;;;;;12.63;6.63;;;11.90;99.90;;;;;;5076310;28;20686;-75
2023/07/24 11:29:16;;;;;;;13.07;6.70;;;11.80;99.90;;;;;;5075981;28;20197;-76
2023/07/24 11:31:46;;;;;;;14.73;6.90;;;11.80;99.90;;;;;;5076542;28;20659;-75
2023/07/24 11:34:20;;;;;;;12.82;7.65;;;11.80;99.90;;;;;;5076140;28;20221;-76
2023/07/24 11:36:51;;;;;;;16.38;8.13;;;11.80;99.90;;;;;;5076536;28;20185;-75
2023/07/24 11:39:26;;;;;;;14.50;8.00;;;11.80;99.90;;;;;;5076224;28;20193;-79
2023/07/24 11:41:57;;;;;;;15.73;7.82;;;11.80;99.90;;;;;;5076144;28;20670;-79
2023/07/24 11:44:32;;;;;;;16.95;7.38;;;11.80;99.90;;;;;;5075965;28;20565;-75
2023/07/24 11:47:06;;;;;;;13.98;7.25;;;11.80;99.90;;;;;;5075972;28;20561;-74
2023/07/24 11:49:45;;;;;;;15.30;7.50;;;11.80;99.90;;;;;;5076051;28;20188;-74
2023/07/24 11:52:16;;;;;;;13.75;7.20;;;11.80;99.90;;;;;;5076246;28;20200;-75
2023/07/24 11:54:47;;;;;;;13.52;6.80;;;11.80;99.90;;;;;;5075793;28;20242;-80
2023/07/24 11:57:20;;;;;;;10.40;6.35;;;11.80;99.90;;;;;;5075141;28;20185;-77
2023/07/24 11:59:53;;;;;;;11.18;6.50;;;11.80;99.90;;;;;;5075260;28;20193;-79
2023/07/24 12:02:24;;;;;;;11.73;6.65;;;11.80;99.90;;;;;;5075906;28;20193;-74
2023/07/24 12:05:01;;;;;;;11.82;6.72;;;11.80;99.90;;;;;;5075832;28;20192;-75
2023/07/24 12:07:38;;;;;;;9.93;6.05;;;11.80;99.90;;;;;;5075834;28;20193;-80
2023/07/24 12:10:09;;;;;;;12.10;6.20;;;11.80;99.90;;;;;;5075688;28;20242;-79
2023/07/24 12:12:46;;;;;;;15.05;6.15;;;11.90;99.90;;;;;;5075064;28;20199;-80
2023/07/24 12:15:18;;;;;;;11.48;6.10;;;11.80;99.90;;;;;;5075453;28;20267;-81
2023/07/24 12:17:49;;;;;;;14.55;6.72;;;11.70;99.90;;;;;;5075466;28;20567;-80
2023/07/24 12:20:21;;;;;;;10.52;6.43;;;11.70;99.90;;;;;;5075472;28;20276;-81
2023/07/24 12:22:52;;;;;;;11.27;6.47;;;11.70;99.90;;;;;;5075557;28;20280;-81
2023/07/24 12:25:23;;;;;;;9.98;5.50;;;11.70;99.90;;;;;;5075116;28;20285;-80
2023/07/24 12:27:54;;;;;;;12.77;5.90;;;11.70;99.90;;;;;;5075359;28;20193;-80
2023/07/24 12:30:25;;;;;;;14.65;6.50;;;11.70;99.90;;;;;;5075460;28;20189;-80
2023/07/24 12:32:55;;;;;;;11.85;6.70;;;11.70;99.90;;;;;;5075296;28;20196;-80
2023/07/24 12:35:28;;;;;;;15.25;6.60;;;11.60;99.90;;;;;;5075233;28;20200;-79
2023/07/24 12:37:59;;;;;;;14.45;6.55;;;11.60;99.90;;;;;;5075400;28;20189;-80
2023/07/24 12:40:30;;;;;;;12.85;7.05;;;11.60;99.90;;;;;;5074966;28;20274;-83
2023/07/24 12:43:01;;;;;;;11.18;6.60;;;11.50;99.90;;;;;;5074996;28;20189;-79
2023/07/24 12:45:31;;;;;;;12.25;6.88;;;11.50;99.90;;;;;;5075175;28;20189;-81
2023/07/24 12:48:02;;;;;;;9.98;6.50;;;11.50;99.90;;;;;;5074934;28;20655;-80
2023/07/24 12:50:35;;;;;;;12.13;6.70;;;11.40;99.90;;;;;;5074886;28;20558;-81
2023/07/24 12:53:06;;;;;;;10.70;6.68;;;11.40;99.90;;;;;;5074690;28;20219;-81
2023/07/24 12:55:37;;;;;;;11.40;6.80;;;11.30;99.90;;;;;;5074691;28;20725;-80
2023/07/24 12:58:07;;;;;;;14.90;7.22;;;11.30;99.90;;;;;;5074531;28;20199;-81
2023/07/24 13:00:38;;;;;;;14.20;7.43;;;11.30;99.90;;;;;;5074925;28;20211;-79
2023/07/24 13:03:09;;;;;;;10.23;6.75;;;11.20;99.90;;;;;;5074825;28;20284;-80
2023/07/24 13:05:42;;;;;;;12.98;6.93;;;11.20;99.90;;;;;;5074370;28;20193;-81